Time;durP1;ratioP1;P1;durP2;ratioP2;P2;SDS_P1;SDS_P2;PMS_P1;PMS_P2;Temp;Humidity;BMP_temperature;BMP_pressure;BME280_temperature;BME280_humidity;BME280_pressure;Samples;Min_cycle;Max_cycle;Signal;HPM_P1;HPM_P2
2022/08/16 00:01:06;;;;;;;7.20;6.70;;;;;;;;;;5000048;28;20463;-91
2022/08/16 00:03:32;;;;;;;6.67;6.27;;;;;;;;;;4981372;28;20445;-92
2022/08/16 00:05:58;;;;;;;7.33;6.60;;;;;;;;;;4980366;28;20447;-93
2022/08/16 00:08:24;;;;;;;7.27;6.97;;;;;;;;;;4980783;28;20425;-94
2022/08/16 00:10:50;;;;;;;6.30;6.10;;;;;;;;;;4971629;28;20442;-93
2022/08/16 00:13:16;;;;;;;7.13;6.63;;;;;;;;;;4969168;28;20435;-91
2022/08/16 00:15:44;;;;;;;6.73;6.27;;;;;;;;;;4974967;28;20491;-91
2022/08/16 00:18:10;;;;;;;6.80;6.40;;;;;;;;;;4978474;28;20424;-93
2022/08/16 00:20:38;;;;;;;8.50;6.97;;;;;;;;;;4989578;28;20928;-93
2022/08/16 00:23:04;;;;;;;6.90;6.70;;;;;;;;;;4985972;28;20563;-92
2022/08/16 00:25:30;;;;;;;7.43;7.13;;;;;;;;;;4955854;28;20429;-93
2022/08/16 00:27:56;;;;;;;7.00;6.63;;;;;;;;;;4960081;28;20562;-91
2022/08/16 00:30:23;;;;;;;7.13;6.73;;;;;;;;;;4976569;28;20443;-93
2022/08/16 00:32:51;;;;;;;6.00;5.80;;;;;;;;;;4996799;28;20408;-93
2022/08/16 00:35:20;;;;;;;6.30;5.77;;;;;;;;;;4967616;28;20424;-92
2022/08/16 00:37:47;;;;;;;7.90;6.73;;;;;;;;;;4981172;28;20415;-93
2022/08/16 00:40:18;;;;;;;6.23;5.97;;;;;;;;;;4964991;28;20471;-93
2022/08/16 00:42:44;;;;;;;6.07;5.87;;;;;;;;;;4982388;28;20745;-94
2022/08/16 00:45:29;;;;;;;8.67;8.00;;;;;;;;;;4973149;28;20443;-92
2022/08/16 00:47:55;;;;;;;7.63;7.27;;;;;;;;;;4991147;28;20471;-93
2022/08/16 00:50:23;;;;;;;7.30;7.00;;;;;;;;;;4972742;28;20429;-93
2022/08/16 00:52:49;;;;;;;8.37;7.67;;;;;;;;;;4975017;28;20440;-93
2022/08/16 00:55:15;;;;;;;6.57;6.23;;;;;;;;;;4974759;28;20852;-92
2022/08/16 00:57:41;;;;;;;7.67;7.07;;;;;;;;;;4996180;28;20455;-93
2022/08/16 01:00:08;;;;;;;7.80;7.40;;;;;;;;;;4978118;28;20551;-92
2022/08/16 01:02:34;;;;;;;7.37;7.03;;;;;;;;;;4957953;28;20441;-92
2022/08/16 01:05:01;;;;;;;7.13;6.80;;;;;;;;;;4995561;28;21046;-93
2022/08/16 01:07:28;;;;;;;6.97;6.40;;;;;;;;;;4960320;28;20968;-93
2022/08/16 01:09:54;;;;;;;6.20;6.00;;;;;;;;;;4977940;28;20482;-93
2022/08/16 01:12:20;;;;;;;7.70;7.20;;;;;;;;;;4994594;28;20440;-93
2022/08/16 01:14:50;;;;;;;7.13;6.73;;;;;;;;;;4959593;28;20425;-90
2022/08/16 01:17:18;;;;;;;7.43;6.87;;;;;;;;;;4973610;28;20515;-94
2022/08/16 01:19:47;;;;;;;7.80;7.30;;;;;;;;;;4976794;28;20460;-93
2022/08/16 01:22:19;;;;;;;8.17;7.50;;;;;;;;;;4960868;28;20552;-91
2022/08/16 01:24:47;;;;;;;7.47;6.60;;;;;;;;;;4975461;28;20398;-93
2022/08/16 01:27:13;;;;;;;7.60;7.13;;;;;;;;;;4958217;28;20939;-91
2022/08/16 01:29:50;;;;;;;7.57;6.90;;;;;;;;;;4959575;28;20487;-93
2022/08/16 01:32:16;;;;;;;7.87;7.07;;;;;;;;;;4973260;28;21132;-92
2022/08/16 01:34:43;;;;;;;7.93;7.37;;;;;;;;;;4958323;28;20437;-93
2022/08/16 01:37:10;;;;;;;8.30;7.53;;;;;;;;;;4954862;28;20968;-92
2022/08/16 01:39:36;;;;;;;8.07;7.57;;;;;;;;;;4962681;28;21190;-92
2022/08/16 01:42:04;;;;;;;7.50;7.10;;;;;;;;;;4949985;29;20449;-93
2022/08/16 01:44:30;;;;;;;6.63;6.20;;;;;;;;;;4960215;28;20962;-92
2022/08/16 01:46:56;;;;;;;7.27;6.77;;;;;;;;;;4974945;28;21156;-92
2022/08/16 01:49:25;;;;;;;7.23;6.83;;;;;;;;;;4959790;28;20429;-92
2022/08/16 01:51:55;;;;;;;7.60;7.00;;;;;;;;;;4962114;28;20449;-93
2022/08/16 01:54:21;;;;;;;7.90;7.50;;;;;;;;;;4961682;28;20425;-93
2022/08/16 01:56:47;;;;;;;6.87;6.47;;;;;;;;;;4976363;28;20940;-92
2022/08/16 01:59:14;;;;;;;7.23;6.83;;;;;;;;;;4989795;28;20504;-92
2022/08/16 02:01:40;;;;;;;6.43;6.23;;;;;;;;;;4976184;28;20808;-93
2022/08/16 02:04:06;;;;;;;8.30;7.73;;;;;;;;;;4976571;28;20531;-92
2022/08/16 02:06:33;;;;;;;7.60;7.27;;;;;;;;;;4970672;28;20465;-92
2022/08/16 02:08:59;;;;;;;7.00;6.40;;;;;;;;;;4978500;28;20433;-93
2022/08/16 02:11:25;;;;;;;7.07;6.77;;;;;;;;;;4973274;28;20528;-93
2022/08/16 02:13:51;;;;;;;6.80;6.53;;;;;;;;;;4958888;28;20540;-92
2022/08/16 02:16:17;;;;;;;7.77;7.37;;;;;;;;;;4978425;28;20441;-92
2022/08/16 02:18:43;;;;;;;7.13;6.63;;;;;;;;;;4962350;28;20527;-92
2022/08/16 02:21:10;;;;;;;8.07;7.37;;;;;;;;;;4957263;28;20476;-92
2022/08/16 02:23:37;;;;;;;6.60;6.20;;;;;;;;;;4981137;28;20852;-92
2022/08/16 02:26:04;;;;;;;7.00;6.67;;;;;;;;;;4972780;28;20523;-91
2022/08/16 02:28:30;;;;;;;6.47;6.27;;;;;;;;;;4968941;28;20463;-93
2022/08/16 02:30:58;;;;;;;7.83;7.33;;;;;;;;;;4981073;28;20441;-92
2022/08/16 02:33:25;;;;;;;8.17;7.67;;;;;;;;;;4977131;28;20420;-92
2022/08/16 02:35:51;;;;;;;7.07;6.60;;;;;;;;;;4974594;28;20429;-93
2022/08/16 02:38:17;;;;;;;7.57;7.10;;;;;;;;;;4969664;28;20479;-93
2022/08/16 02:40:43;;;;;;;7.30;6.70;;;;;;;;;;4972783;28;20440;-91
2022/08/16 02:43:09;;;;;;;7.17;6.67;;;;;;;;;;4984334;28;20421;-92
2022/08/16 02:45:36;;;;;;;8.33;7.57;;;;;;;;;;4972191;28;20441;-93
2022/08/16 02:48:02;;;;;;;7.03;6.63;;;;;;;;;;4994481;28;20420;-91
2022/08/16 02:50:28;;;;;;;6.83;6.53;;;;;;;;;;4975520;28;20513;-93
2022/08/16 02:52:54;;;;;;;7.03;6.33;;;;;;;;;;4956640;28;20469;-93
2022/08/16 02:55:21;;;;;;;6.90;6.47;;;;;;;;;;4993192;28;20431;-93
2022/08/16 02:57:47;;;;;;;7.23;6.80;;;;;;;;;;4973257;28;20421;-94
2022/08/16 03:00:13;;;;;;;7.10;6.80;;;;;;;;;;4970436;28;20476;-92
2022/08/16 03:02:40;;;;;;;7.80;7.20;;;;;;;;;;4964932;28;21093;-90
2022/08/16 03:05:08;;;;;;;6.87;6.50;;;;;;;;;;4990002;28;20437;-91
2022/08/16 03:07:34;;;;;;;7.10;6.80;;;;;;;;;;4959408;28;20445;-91
2022/08/16 03:10:00;;;;;;;8.50;7.87;;;;;;;;;;4975484;28;20483;-93
2022/08/16 03:12:26;;;;;;;8.07;7.50;;;;;;;;;;4970021;28;20455;-92
2022/08/16 03:14:52;;;;;;;7.20;6.70;;;;;;;;;;4957606;28;20436;-91
2022/08/16 03:17:18;;;;;;;7.13;6.73;;;;;;;;;;4974590;28;20992;-93
2022/08/16 03:19:44;;;;;;;7.33;7.00;;;;;;;;;;4960073;28;20943;-93
2022/08/16 03:22:10;;;;;;;7.47;7.07;;;;;;;;;;4968520;28;20837;-93
2022/08/16 03:24:36;;;;;;;7.30;7.00;;;;;;;;;;4957317;28;20405;-93
2022/08/16 03:27:02;;;;;;;7.97;7.03;;;;;;;;;;4955957;28;20951;-93
2022/08/16 03:29:32;;;;;;;7.70;7.20;;;;;;;;;;4973666;28;20959;-93
2022/08/16 03:31:59;;;;;;;7.17;6.70;;;;;;;;;;4983745;28;20448;-87
2022/08/16 03:34:25;;;;;;;8.13;7.60;;;;;;;;;;4968387;28;20423;-87
2022/08/16 03:36:51;;;;;;;7.60;7.20;;;;;;;;;;4967727;28;20514;-91
2022/08/16 03:39:17;;;;;;;8.00;7.50;;;;;;;;;;4940279;29;20473;-93
2022/08/16 03:41:43;;;;;;;7.83;7.33;;;;;;;;;;4971763;28;20444;-92
2022/08/16 03:44:09;;;;;;;7.13;6.70;;;;;;;;;;4958542;28;20424;-92
2022/08/16 03:46:35;;;;;;;7.77;7.07;;;;;;;;;;4949590;29;20481;-93
2022/08/16 03:49:01;;;;;;;7.07;6.67;;;;;;;;;;4943533;28;20777;-92
2022/08/16 03:51:27;;;;;;;7.57;7.20;;;;;;;;;;4976637;28;20442;-93
2022/08/16 03:53:53;;;;;;;6.90;6.20;;;;;;;;;;4959459;28;20436;-93
2022/08/16 03:56:19;;;;;;;7.77;7.17;;;;;;;;;;4941230;28;20458;-92
2022/08/16 03:58:45;;;;;;;8.13;7.43;;;;;;;;;;4974215;28;20457;-94
2022/08/16 04:01:11;;;;;;;7.00;6.57;;;;;;;;;;4941641;28;21058;-92
2022/08/16 04:03:37;;;;;;;6.57;6.17;;;;;;;;;;4959391;28;20453;-91
2022/08/16 04:06:03;;;;;;;7.40;7.10;;;;;;;;;;4974192;28;20429;-93
2022/08/16 04:08:30;;;;;;;6.83;6.53;;;;;;;;;;4958547;28;20409;-92
2022/08/16 04:10:56;;;;;;;7.50;7.00;;;;;;;;;;4956045;28;20421;-93
2022/08/16 04:13:22;;;;;;;6.27;6.07;;;;;;;;;;4967584;28;20436;-93
2022/08/16 04:15:49;;;;;;;7.40;6.90;;;;;;;;;;4957686;28;20425;-92
2022/08/16 04:18:16;;;;;;;7.70;7.20;;;;;;;;;;4964527;28;20429;-93
2022/08/16 04:20:42;;;;;;;7.03;6.63;;;;;;;;;;4954334;29;20465;-93
2022/08/16 04:23:08;;;;;;;7.80;7.30;;;;;;;;;;4992902;28;20495;-92
2022/08/16 04:25:35;;;;;;;7.30;6.90;;;;;;;;;;4985366;28;20441;-93
2022/08/16 04:28:01;;;;;;;7.43;6.93;;;;;;;;;;4960302;28;20432;-93
2022/08/16 04:30:28;;;;;;;6.70;6.43;;;;;;;;;;4968659;28;20842;-94
2022/08/16 04:32:54;;;;;;;8.37;7.57;;;;;;;;;;4971842;28;20475;-93
2022/08/16 04:35:22;;;;;;;7.30;6.70;;;;;;;;;;4975001;28;20468;-92
2022/08/16 04:37:48;;;;;;;7.00;6.40;;;;;;;;;;4966835;28;20424;-93
2022/08/16 04:40:15;;;;;;;8.03;7.70;;;;;;;;;;4957986;28;20456;-93
2022/08/16 04:42:41;;;;;;;7.40;6.80;;;;;;;;;;4965739;28;20452;-90
2022/08/16 04:45:09;;;;;;;8.27;7.60;;;;;;;;;;4976747;28;20436;-92
2022/08/16 04:47:35;;;;;;;6.50;6.00;;;;;;;;;;4992686;28;20443;-93
2022/08/16 04:50:08;;;;;;;7.00;6.57;;;;;;;;;;4975392;28;20428;-93
2022/08/16 04:52:34;;;;;;;7.17;6.70;;;;;;;;;;4963050;28;20989;-94
2022/08/16 04:55:00;;;;;;;7.13;6.67;;;;;;;;;;4971972;28;20432;-88
2022/08/16 04:57:26;;;;;;;7.70;7.00;;;;;;;;;;4955609;28;20449;-93
2022/08/16 04:59:52;;;;;;;7.13;6.70;;;;;;;;;;4992804;28;20490;-92
2022/08/16 05:02:18;;;;;;;7.10;6.70;;;;;;;;;;4969281;28;20955;-92
2022/08/16 05:04:44;;;;;;;7.57;7.07;;;;;;;;;;4977294;28;20452;-92
2022/08/16 05:07:10;;;;;;;7.27;6.60;;;;;;;;;;4969077;28;20429;-93
2022/08/16 05:09:39;;;;;;;7.43;6.93;;;;;;;;;;4975281;28;20420;-90
2022/08/16 05:12:05;;;;;;;6.87;6.40;;;;;;;;;;4991694;28;20430;-93
2022/08/16 05:14:31;;;;;;;9.03;7.00;;;;;;;;;;4989592;28;20425;-92
2022/08/16 05:16:57;;;;;;;7.47;7.03;;;;;;;;;;4980128;28;20440;-92
2022/08/16 05:19:24;;;;;;;6.77;6.40;;;;;;;;;;4987182;28;20478;-93
2022/08/16 05:21:50;;;;;;;7.27;6.87;;;;;;;;;;4991341;28;20480;-93
2022/08/16 05:24:16;;;;;;;6.30;6.00;;;;;;;;;;4961359;28;20464;-93
2022/08/16 05:26:42;;;;;;;5.60;5.40;;;;;;;;;;4981055;28;20425;-89
2022/08/16 05:29:08;;;;;;;6.00;5.60;;;;;;;;;;4970241;28;20444;-91
2022/08/16 05:31:37;;;;;;;6.63;6.13;;;;;;;;;;5043534;23;20528;-94
2022/08/16 05:34:03;;;;;;;7.33;6.93;;;;;;;;;;4770500;23;15070012;-91
2022/08/16 05:36:33;;;;;;;6.20;5.90;;;;;;;;;;5007093;28;20173;-94
2022/08/16 05:39:02;;;;;;;6.77;6.27;;;;;;;;;;5011154;28;20459;-92
2022/08/16 05:41:28;;;;;;;6.10;5.67;;;;;;;;;;5012457;28;20446;-91
2022/08/16 05:44:01;;;;;;;5.83;5.63;;;;;;;;;;5015597;28;20411;-93
2022/08/16 05:46:29;;;;;;;5.40;5.30;;;;;;;;;;4995119;28;20500;-94
2022/08/16 05:48:55;;;;;;;6.80;6.30;;;;;;;;;;4890017;23;10002589;-92
2022/08/16 05:51:25;;;;;;;5.90;5.63;;;;;;;;;;5191880;23;20464;-93
2022/08/16 05:53:58;;;;;;;5.23;5.03;;;;;;;;;;5016269;28;20568;-93
2022/08/16 05:56:25;;;;;;;5.93;5.73;;;;;;;;;;4988371;28;20456;-90
2022/08/16 06:01:38;;;;;;;6.13;5.73;;;;;;;;;;5132422;23;20516;-95
2022/08/16 06:25:01;;;;;;;5.63;5.40;;;;;;;;;;5063567;23;21458;-92
2022/08/16 06:30:02;;;;;;;5.93;5.40;;;;;;;;;;5046547;28;20486;-93
2022/08/16 06:32:29;;;;;;;5.57;5.37;;;;;;;;;;5047358;28;20467;-88
2022/08/16 06:35:10;;;;;;;5.63;5.10;;;;;;;;;;5015199;28;20442;-95
2022/08/16 06:37:36;;;;;;;5.13;5.00;;;;;;;;;;5082858;23;20479;-95
2022/08/16 06:40:06;;;;;;;5.60;5.40;;;;;;;;;;5069139;23;20484;-92
2022/08/16 06:47:57;;;;;;;6.03;4.67;;;;;;;;;;5313967;23;20487;-91
2022/08/16 06:50:23;;;;;;;5.23;4.87;;;;;;;;;;5011439;28;20446;-93
2022/08/16 06:52:49;;;;;;;5.10;4.80;;;;;;;;;;5010587;28;20462;-92
2022/08/16 06:55:17;;;;;;;5.50;5.30;;;;;;;;;;5007049;28;21171;-92
2022/08/16 07:00:12;;;;;;;5.07;4.97;;;;;;;;;;5028800;28;20558;-91
2022/08/16 07:03:10;;;;;;;5.50;5.40;;;;;;;;;;5085079;23;20485;-93
2022/08/16 07:05:55;;;;;;;5.67;5.23;;;;;;;;;;4969686;28;20502;-95
2022/08/16 07:11:05;;;;;;;6.23;5.73;;;;;;;;;;5232867;23;20489;-95
2022/08/16 07:13:49;;;;;;;6.03;5.83;;;;;;;;;;5121612;23;20572;-92
2022/08/16 07:16:15;;;;;;;5.03;4.83;;;;;;;;;;5032616;28;20423;-93
2022/08/16 07:18:44;;;;;;;6.67;6.27;;;;;;;;;;5054823;23;20554;-94
2022/08/16 07:23:52;;;;;;;5.20;5.10;;;;;;;;;;2643222;23;20547;-90
2022/08/16 07:26:20;;;;;;;5.97;5.47;;;;;;;;;;4975154;28;20409;-92
2022/08/16 07:28:47;;;;;;;5.67;5.40;;;;;;;;;;5146782;23;20499;-92
2022/08/16 07:31:13;;;;;;;5.37;5.20;;;;;;;;;;4990383;28;20468;-92
2022/08/16 07:33:39;;;;;;;6.20;5.80;;;;;;;;;;4989573;28;20437;-89
2022/08/16 07:36:06;;;;;;;5.37;5.07;;;;;;;;;;4991587;28;20448;-94
2022/08/16 07:38:32;;;;;;;5.90;5.60;;;;;;;;;;5017488;23;20574;-92
2022/08/16 07:40:58;;;;;;;6.20;5.90;;;;;;;;;;4993067;28;20466;-94
2022/08/16 07:43:25;;;;;;;5.57;5.37;;;;;;;;;;4954859;28;20445;-94
2022/08/16 07:45:54;;;;;;;5.63;5.33;;;;;;;;;;4991631;28;20436;-93
2022/08/16 07:48:23;;;;;;;6.23;6.00;;;;;;;;;;5116028;23;20482;-96
2022/08/16 07:50:49;;;;;;;6.07;5.73;;;;;;;;;;4960817;28;20462;-91
2022/08/16 07:53:17;;;;;;;6.47;6.07;;;;;;;;;;5073888;23;20476;-93
2022/08/16 07:55:43;;;;;;;5.43;5.23;;;;;;;;;;4952799;28;20481;-95
2022/08/16 07:58:10;;;;;;;5.40;5.20;;;;;;;;;;4945998;29;20430;-95
2022/08/16 08:00:36;;;;;;;6.50;6.30;;;;;;;;;;4960634;28;20488;-93
2022/08/16 08:03:03;;;;;;;6.40;6.30;;;;;;;;;;4945532;29;20470;-93
2022/08/16 08:05:29;;;;;;;6.03;5.80;;;;;;;;;;4626086;28;10000020;-91
2022/08/16 08:07:55;;;;;;;5.53;5.30;;;;;;;;;;4946835;29;20418;-92
2022/08/16 08:10:22;;;;;;;5.47;5.30;;;;;;;;;;4941699;29;20442;-95
2022/08/16 08:12:49;;;;;;;5.30;5.20;;;;;;;;;;4932256;29;20478;-94
2022/08/16 08:15:15;;;;;;;6.30;5.80;;;;;;;;;;4944791;29;20520;-93
2022/08/16 08:17:42;;;;;;;5.30;5.10;;;;;;;;;;4937220;29;20458;-91
2022/08/16 08:20:09;;;;;;;6.07;5.60;;;;;;;;;;4940634;29;20611;-93
2022/08/16 08:22:40;;;;;;;6.43;6.13;;;;;;;;;;4959663;28;20434;-91
2022/08/16 08:25:07;;;;;;;6.10;5.87;;;;;;;;;;4939997;29;20422;-91
2022/08/16 08:27:33;;;;;;;5.43;5.33;;;;;;;;;;4948608;29;20513;-91
2022/08/16 08:29:59;;;;;;;6.63;6.40;;;;;;;;;;4938240;29;20470;-91
2022/08/16 08:32:27;;;;;;;7.73;6.53;;;;;;;;;;4950197;28;20483;-90
2022/08/16 08:34:53;;;;;;;6.33;6.07;;;;;;;;;;4943514;29;20424;-91
2022/08/16 08:37:20;;;;;;;6.30;5.90;;;;;;;;;;4951601;29;20438;-91
2022/08/16 08:39:46;;;;;;;5.83;5.73;;;;;;;;;;4956927;29;20458;-92
2022/08/16 08:42:14;;;;;;;6.20;5.70;;;;;;;;;;4939602;29;20481;-91
2022/08/16 08:44:43;;;;;;;6.60;6.23;;;;;;;;;;4960809;29;20407;-91
2022/08/16 08:47:09;;;;;;;6.27;5.97;;;;;;;;;;4955751;28;20458;-90
2022/08/16 08:49:39;;;;;;;5.97;5.67;;;;;;;;;;5088927;23;20563;-93
2022/08/16 08:52:11;;;;;;;5.73;5.40;;;;;;;;;;4995169;28;20425;-95
2022/08/16 08:57:17;;;;;;;5.70;5.50;;;;;;;;;;4991440;23;20496;-94
2022/08/16 08:59:54;;;;;;;5.37;5.17;;;;;;;;;;4976823;28;20528;-93
2022/08/16 09:02:20;;;;;;;5.77;5.47;;;;;;;;;;4968088;29;20440;-92
2022/08/16 09:04:47;;;;;;;5.47;5.30;;;;;;;;;;4655323;28;9999928;-94
2022/08/16 09:07:13;;;;;;;6.10;5.70;;;;;;;;;;4969437;28;20692;-93
2022/08/16 09:10:03;;;;;;;6.30;5.90;;;;;;;;;;4995671;23;20741;-92
2022/08/16 09:12:30;;;;;;;6.20;6.00;;;;;;;;;;4957396;29;20449;-91
2022/08/16 09:14:56;;;;;;;5.73;5.43;;;;;;;;;;4946568;29;20446;-90
2022/08/16 09:17:23;;;;;;;5.90;5.60;;;;;;;;;;4937922;29;20511;-91
2022/08/16 09:19:50;;;;;;;5.20;4.90;;;;;;;;;;4932508;29;20511;-89
2022/08/16 09:25:15;;;;;;;5.80;5.60;;;;;;;;;;4969859;29;20506;-93
2022/08/16 09:30:52;;;;;;;6.50;6.00;;;;;;;;;;4919811;29;20514;-93
2022/08/16 09:33:28;;;;;;;6.07;5.67;;;;;;;;;;4943862;29;20423;-95
2022/08/16 09:36:08;;;;;;;5.50;5.30;;;;;;;;;;5124498;23;20488;-92
2022/08/16 09:38:42;;;;;;;5.67;5.33;;;;;;;;;;4977878;28;20484;-93
2022/08/16 09:41:16;;;;;;;6.13;5.93;;;;;;;;;;4972828;28;20453;-94
2022/08/16 09:43:46;;;;;;;6.67;6.13;;;;;;;;;;5157248;23;20491;-95
2022/08/16 09:46:16;;;;;;;5.93;5.73;;;;;;;;;;4992858;28;20469;-95
2022/08/16 09:48:42;;;;;;;6.20;6.00;;;;;;;;;;5024043;28;20503;-91
2022/08/16 09:51:26;;;;;;;6.20;5.90;;;;;;;;;;5208410;23;20477;-92
2022/08/16 09:53:55;;;;;;;6.57;6.27;;;;;;;;;;4973104;28;21002;-94
2022/08/16 09:56:51;;;;;;;5.93;5.73;;;;;;;;;;5077522;23;20522;-92
2022/08/16 09:59:18;;;;;;;5.93;5.63;;;;;;;;;;5046818;23;20484;-91
2022/08/16 10:01:50;;;;;;;5.57;5.40;;;;;;;;;;4993789;28;20460;-93
2022/08/16 10:04:21;;;;;;;8.70;7.67;;;;;;;;;;4974147;28;20474;-92
2022/08/16 10:06:48;;;;;;;6.00;5.60;;;;;;;;;;4989695;28;20441;-92
2022/08/16 10:09:14;;;;;;;6.50;6.20;;;;;;;;;;4992334;28;20456;-93
2022/08/16 10:14:31;;;;;;;5.40;5.00;;;;;;;;;;4991549;28;20469;-90
2022/08/16 10:17:01;;;;;;;5.70;5.40;;;;;;;;;;4985840;28;20437;-92
2022/08/16 10:19:28;;;;;;;5.20;5.00;;;;;;;;;;4988662;28;20437;-92
2022/08/16 10:24:30;;;;;;;6.20;5.80;;;;;;;;;;1405465;26;20489;-95
2022/08/16 10:26:57;;;;;;;5.00;4.80;;;;;;;;;;5016724;28;20436;-92
2022/08/16 10:29:23;;;;;;;8.37;7.57;;;;;;;;;;5009299;28;20510;-90
2022/08/16 10:31:50;;;;;;;5.40;5.20;;;;;;;;;;5027753;28;20486;-90
2022/08/16 10:34:19;;;;;;;5.27;5.07;;;;;;;;;;5029400;28;20443;-90
2022/08/16 10:36:45;;;;;;;5.00;4.90;;;;;;;;;;5012490;28;20423;-91
2022/08/16 10:39:11;;;;;;;5.47;5.27;;;;;;;;;;4667172;28;10001313;-90
2022/08/16 10:41:37;;;;;;;5.17;4.97;;;;;;;;;;4985300;28;20475;-94
2022/08/16 10:44:03;;;;;;;5.20;4.80;;;;;;;;;;5113470;23;20496;-90
2022/08/16 10:46:29;;;;;;;5.33;5.23;;;;;;;;;;5002731;28;20464;-94
2022/08/16 10:48:58;;;;;;;5.40;5.20;;;;;;;;;;5149725;23;20490;-95
2022/08/16 10:51:25;;;;;;;5.50;5.20;;;;;;;;;;5097954;23;20485;-95
2022/08/16 10:53:51;;;;;;;5.10;4.90;;;;;;;;;;4971829;28;20449;-94
2022/08/16 10:56:17;;;;;;;5.30;4.93;;;;;;;;;;4952826;28;20437;-93
2022/08/16 10:58:43;;;;;;;5.37;5.00;;;;;;;;;;4945749;29;20450;-92
2022/08/16 11:01:10;;;;;;;5.50;5.20;;;;;;;;;;4971762;28;20564;-93
2022/08/16 11:03:37;;;;;;;5.70;5.37;;;;;;;;;;4970566;28;20463;-93
2022/08/16 11:06:04;;;;;;;5.67;5.40;;;;;;;;;;4971550;28;20492;-90
2022/08/16 11:08:31;;;;;;;4.70;4.57;;;;;;;;;;4966478;28;20480;-94
2022/08/16 11:10:57;;;;;;;5.50;5.37;;;;;;;;;;4967374;28;20473;-95
2022/08/16 11:13:30;;;;;;;4.90;4.80;;;;;;;;;;4963982;28;20460;-94
2022/08/16 11:15:57;;;;;;;4.40;4.30;;;;;;;;;;4965378;28;20429;-95
2022/08/16 11:18:24;;;;;;;5.37;4.93;;;;;;;;;;4963057;28;20557;-92
2022/08/16 11:20:50;;;;;;;4.50;4.33;;;;;;;;;;4986990;28;20441;-88
2022/08/16 11:23:16;;;;;;;5.10;4.70;;;;;;;;;;4966736;28;20445;-95
2022/08/16 11:25:42;;;;;;;4.60;4.50;;;;;;;;;;4967769;28;20528;-90
2022/08/16 11:28:09;;;;;;;10.40;9.80;;;;;;;;;;4969569;29;20434;-93
2022/08/16 11:30:36;;;;;;;5.83;5.53;;;;;;;;;;4951786;29;20474;-94
2022/08/16 11:33:02;;;;;;;4.93;4.80;;;;;;;;;;4980402;28;20433;-91
2022/08/16 11:35:31;;;;;;;5.70;5.40;;;;;;;;;;4966833;28;20998;-93
2022/08/16 11:37:59;;;;;;;5.13;5.03;;;;;;;;;;4972563;28;20499;-95
2022/08/16 11:40:27;;;;;;;4.67;4.37;;;;;;;;;;4973440;28;20457;-95
2022/08/16 11:42:53;;;;;;;4.30;4.20;;;;;;;;;;4971049;28;20436;-96
2022/08/16 11:45:19;;;;;;;4.47;4.37;;;;;;;;;;4965508;28;20488;-91
2022/08/16 11:47:49;;;;;;;4.40;4.30;;;;;;;;;;4963764;28;20425;-94
2022/08/16 11:50:16;;;;;;;4.23;4.00;;;;;;;;;;4964375;28;20488;-93
2022/08/16 11:52:42;;;;;;;4.60;4.50;;;;;;;;;;4964903;28;20449;-88
2022/08/16 11:55:10;;;;;;;4.80;4.37;;;;;;;;;;4967282;28;20452;-91
2022/08/16 11:57:36;;;;;;;4.90;4.47;;;;;;;;;;4966787;28;20980;-95
2022/08/16 12:00:08;;;;;;;5.10;5.00;;;;;;;;;;4964356;28;20425;-95
2022/08/16 12:02:52;;;;;;;4.53;4.20;;;;;;;;;;4961392;28;20442;-96
2022/08/16 12:05:19;;;;;;;4.40;4.30;;;;;;;;;;4967908;28;20509;-94
2022/08/16 12:07:45;;;;;;;4.93;4.50;;;;;;;;;;4945748;28;20430;-94
2022/08/16 12:10:13;;;;;;;5.10;4.70;;;;;;;;;;4964006;28;20519;-92
2022/08/16 12:12:40;;;;;;;5.77;5.27;;;;;;;;;;4978677;28;20433;-93
2022/08/16 12:15:20;;;;;;;4.83;4.40;;;;;;;;;;4966282;28;20507;-96
2022/08/16 12:17:46;;;;;;;3.90;3.80;;;;;;;;;;4963216;28;20508;-94
2022/08/16 12:20:14;;;;;;;4.33;4.27;;;;;;;;;;4960464;28;20420;-95
2022/08/16 12:22:40;;;;;;;5.80;5.37;;;;;;;;;;4965596;28;20511;-90
2022/08/16 12:25:12;;;;;;;8.20;4.73;;;;;;;;;;4966267;28;20436;-90
2022/08/16 12:27:39;;;;;;;6.37;4.50;;;;;;;;;;4982067;28;20904;-92
2022/08/16 12:30:06;;;;;;;4.73;4.33;;;;;;;;;;4966707;28;20828;-92
2022/08/16 12:32:32;;;;;;;4.87;4.57;;;;;;;;;;4965007;28;20475;-92
2022/08/16 12:35:01;;;;;;;4.90;4.80;;;;;;;;;;4958046;29;20456;-90
2022/08/16 12:37:32;;;;;;;5.10;4.47;;;;;;;;;;4951472;29;20422;-90
2022/08/16 12:42:33;;;;;;;4.73;4.53;;;;;;;;;;5010130;28;20464;-91
2022/08/16 12:45:02;;;;;;;4.03;3.90;;;;;;;;;;4996734;28;20531;-90
2022/08/16 12:50:16;;;;;;;4.70;4.50;;;;;;;;;;5009122;28;20551;-92
2022/08/16 12:52:43;;;;;;;5.73;5.33;;;;;;;;;;4979405;28;20444;-91
2022/08/16 12:55:10;;;;;;;4.57;4.47;;;;;;;;;;4988834;28;20429;-92
2022/08/16 12:57:36;;;;;;;5.57;5.30;;;;;;;;;;4656505;28;9999851;-91
2022/08/16 13:00:04;;;;;;;5.20;5.10;;;;;;;;;;4980836;28;20218;-88
2022/08/16 13:02:30;;;;;;;5.90;5.50;;;;;;;;;;4981453;28;20493;-93
2022/08/16 13:04:56;;;;;;;5.90;5.70;;;;;;;;;;4989730;28;20459;-91
2022/08/16 13:07:22;;;;;;;6.10;5.80;;;;;;;;;;4994672;28;20452;-93
2022/08/16 13:09:54;;;;;;;6.57;6.33;;;;;;;;;;4979946;28;20508;-90
2022/08/16 13:12:25;;;;;;;6.30;6.00;;;;;;;;;;4993539;28;20412;-95
2022/08/16 13:14:54;;;;;;;6.43;6.03;;;;;;;;;;5005397;28;20468;-91
2022/08/16 13:17:24;;;;;;;6.97;6.60;;;;;;;;;;4988278;28;20436;-91
2022/08/16 13:19:51;;;;;;;6.57;6.07;;;;;;;;;;4981678;28;20454;-92
2022/08/16 13:22:17;;;;;;;6.70;6.30;;;;;;;;;;4975398;28;20460;-91
2022/08/16 13:24:47;;;;;;;6.10;5.80;;;;;;;;;;4981085;28;20444;-92
2022/08/16 13:27:13;;;;;;;6.17;5.97;;;;;;;;;;5004668;28;21106;-93
2022/08/16 13:29:39;;;;;;;6.23;5.93;;;;;;;;;;4984735;28;20471;-92
2022/08/16 13:32:06;;;;;;;5.83;5.73;;;;;;;;;;4986272;28;20436;-91
2022/08/16 13:34:32;;;;;;;6.37;5.97;;;;;;;;;;4986084;28;20499;-91
2022/08/16 13:36:58;;;;;;;6.80;6.50;;;;;;;;;;4981735;28;20448;-92
2022/08/16 13:39:25;;;;;;;6.70;6.27;;;;;;;;;;4975344;28;20542;-92
2022/08/16 13:41:51;;;;;;;7.00;6.30;;;;;;;;;;4996258;28;21037;-92
2022/08/16 13:44:17;;;;;;;8.13;5.97;;;;;;;;;;4978202;28;20480;-90
2022/08/16 13:46:46;;;;;;;7.47;7.10;;;;;;;;;;4980358;28;20445;-91
2022/08/16 13:49:12;;;;;;;7.40;7.00;;;;;;;;;;4978022;28;20468;-92
2022/08/16 13:51:38;;;;;;;7.10;6.50;;;;;;;;;;4979030;28;20459;-89
2022/08/16 13:54:04;;;;;;;7.13;6.83;;;;;;;;;;4974610;28;20483;-91
2022/08/16 13:56:33;;;;;;;7.97;7.37;;;;;;;;;;4988208;28;20738;-88
2022/08/16 13:59:00;;;;;;;8.57;8.13;;;;;;;;;;4978901;28;20437;-89
2022/08/16 14:01:26;;;;;;;7.17;6.60;;;;;;;;;;4979219;28;20451;-90
2022/08/16 14:03:52;;;;;;;7.50;6.97;;;;;;;;;;4959971;28;20523;-87
2022/08/16 14:06:18;;;;;;;6.83;6.43;;;;;;;;;;4981017;28;20432;-93
2022/08/16 14:08:44;;;;;;;7.47;6.90;;;;;;;;;;4982176;28;20444;-91
2022/08/16 14:11:12;;;;;;;7.73;6.90;;;;;;;;;;4986911;28;20419;-88
2022/08/16 14:13:38;;;;;;;6.80;6.50;;;;;;;;;;4982691;28;20425;-90
2022/08/16 14:16:04;;;;;;;6.73;6.43;;;;;;;;;;4982412;28;20494;-88
2022/08/16 14:18:30;;;;;;;6.57;6.27;;;;;;;;;;4963789;28;20444;-93
2022/08/16 14:20:57;;;;;;;6.93;6.33;;;;;;;;;;4985190;28;20792;-92
2022/08/16 14:23:23;;;;;;;7.37;6.77;;;;;;;;;;4984826;28;20424;-91
2022/08/16 14:25:55;;;;;;;8.00;7.50;;;;;;;;;;5007202;28;20443;-95
2022/08/16 14:28:21;;;;;;;7.70;6.90;;;;;;;;;;4983218;28;20812;-92
2022/08/16 14:30:48;;;;;;;7.30;6.87;;;;;;;;;;4982956;28;20531;-89
2022/08/16 14:33:14;;;;;;;7.30;6.77;;;;;;;;;;4980599;28;20452;-91
2022/08/16 14:35:41;;;;;;;6.77;6.33;;;;;;;;;;4988628;28;20451;-90
2022/08/16 14:38:07;;;;;;;6.90;6.63;;;;;;;;;;4970750;28;20440;-90
2022/08/16 14:40:34;;;;;;;6.73;6.33;;;;;;;;;;4994930;28;20444;-88
2022/08/16 14:43:00;;;;;;;12.07;10.83;;;;;;;;;;4977070;28;20859;-92
2022/08/16 14:45:27;;;;;;;6.93;6.63;;;;;;;;;;4976235;28;20852;-90
2022/08/16 14:47:53;;;;;;;7.00;6.70;;;;;;;;;;4996071;28;20502;-89
2022/08/16 14:50:20;;;;;;;7.13;6.73;;;;;;;;;;4959593;28;20960;-90
2022/08/16 14:52:48;;;;;;;6.57;6.13;;;;;;;;;;4978573;28;20448;-89
2022/08/16 14:55:14;;;;;;;6.72;6.38;;;;;;;;;;4995199;28;20784;-91
2022/08/16 14:57:40;;;;;;;6.67;6.23;;;;;;;;;;4965619;28;20308;-88
2022/08/16 15:00:09;;;;;;;6.93;6.50;;;;;;;;;;4973767;28;20437;-90
2022/08/16 15:02:35;;;;;;;7.00;6.37;;;;;;;;;;4977033;28;20409;-91
2022/08/16 15:05:03;;;;;;;6.23;5.93;;;;;;;;;;4982853;28;20535;-93
2022/08/16 15:07:32;;;;;;;6.30;6.00;;;;;;;;;;4985195;28;20437;-95
2022/08/16 15:09:58;;;;;;;5.73;5.63;;;;;;;;;;4979743;28;20483;-91
2022/08/16 15:12:25;;;;;;;6.40;6.20;;;;;;;;;;4642525;28;10000101;-95
2022/08/16 15:14:52;;;;;;;7.37;6.50;;;;;;;;;;4983295;28;20193;-93
2022/08/16 15:17:19;;;;;;;6.60;6.30;;;;;;;;;;5002682;28;20502;-92
2022/08/16 15:19:54;;;;;;;6.70;6.20;;;;;;;;;;4977942;28;20475;-95
2022/08/16 15:22:31;;;;;;;7.30;6.70;;;;;;;;;;4986079;28;20424;-93
2022/08/16 15:24:59;;;;;;;8.23;7.60;;;;;;;;;;4975958;28;20452;-92
2022/08/16 15:27:31;;;;;;;7.40;7.20;;;;;;;;;;5004196;28;20433;-93
2022/08/16 15:30:00;;;;;;;7.80;7.20;;;;;;;;;;4980030;28;20425;-92
2022/08/16 15:32:33;;;;;;;7.10;6.70;;;;;;;;;;4984298;28;20185;-92
2022/08/16 15:35:04;;;;;;;7.13;6.80;;;;;;;;;;4984020;28;20441;-93
2022/08/16 15:37:39;;;;;;;7.87;7.00;;;;;;;;;;4984456;28;21001;-90
2022/08/16 15:40:08;;;;;;;6.80;6.40;;;;;;;;;;4982663;28;20448;-92
2022/08/16 15:42:37;;;;;;;6.90;6.30;;;;;;;;;;4985214;28;20467;-94
2022/08/16 15:45:04;;;;;;;7.27;6.77;;;;;;;;;;4978690;28;20452;-94